sensor_id;sensor_type;location;lat;lon;timestamp;P1;durP1;ratioP1;P2;durP2;ratioP2
43457;SDS011;29046;54.184;18.680;2024-01-07T00:02:16;9.20;;;3.42;;
43457;SDS011;29046;54.184;18.680;2024-01-07T00:04:45;9.60;;;3.70;;
43457;SDS011;29046;54.184;18.680;2024-01-07T00:07:13;8.63;;;3.35;;
43457;SDS011;29046;54.184;18.680;2024-01-07T00:09:41;5.95;;;2.67;;
43457;SDS011;29046;54.184;18.680;2024-01-07T00:12:08;4.22;;;1.95;;
43457;SDS011;29046;54.184;18.680;2024-01-07T00:14:36;5.93;;;2.30;;
43457;SDS011;29046;54.184;18.680;2024-01-07T00:17:04;21.13;;;6.72;;
43457;SDS011;29046;54.184;18.680;2024-01-07T00:19:31;8.95;;;2.63;;
43457;SDS011;29046;54.184;18.680;2024-01-07T00:22:02;5.13;;;2.35;;
43457;SDS011;29046;54.184;18.680;2024-01-07T00:24:29;3.97;;;1.95;;
43457;SDS011;29046;54.184;18.680;2024-01-07T00:26:57;3.08;;;1.90;;
43457;SDS011;29046;54.184;18.680;2024-01-07T00:29:25;5.57;;;1.85;;
43457;SDS011;29046;54.184;18.680;2024-01-07T00:31:52;4.70;;;1.92;;
43457;SDS011;29046;54.184;18.680;2024-01-07T00:34:20;5.57;;;1.70;;
43457;SDS011;29046;54.184;18.680;2024-01-07T00:36:48;32.55;;;6.35;;
43457;SDS011;29046;54.184;18.680;2024-01-07T00:39:15;23.05;;;5.78;;
43457;SDS011;29046;54.184;18.680;2024-01-07T00:41:43;10.32;;;3.03;;
43457;SDS011;29046;54.184;18.680;2024-01-07T00:44:10;11.05;;;3.63;;
43457;SDS011;29046;54.184;18.680;2024-01-07T00:46:38;19.15;;;4.88;;
43457;SDS011;29046;54.184;18.680;2024-01-07T00:49:06;15.38;;;3.03;;
43457;SDS011;29046;54.184;18.680;2024-01-07T00:51:34;8.38;;;2.55;;
43457;SDS011;29046;54.184;18.680;2024-01-07T00:54:01;4.32;;;2.13;;
43457;SDS011;29046;54.184;18.680;2024-01-07T00:56:29;4.85;;;1.90;;
43457;SDS011;29046;54.184;18.680;2024-01-07T00:58:57;1.90;;;1.23;;
43457;SDS011;29046;54.184;18.680;2024-01-07T01:01:25;3.13;;;1.80;;
43457;SDS011;29046;54.184;18.680;2024-01-07T01:03:52;10.55;;;4.00;;
43457;SDS011;29046;54.184;18.680;2024-01-07T01:06:20;12.82;;;3.03;;
43457;SDS011;29046;54.184;18.680;2024-01-07T01:08:47;9.52;;;2.50;;
43457;SDS011;29046;54.184;18.680;2024-01-07T01:11:15;5.20;;;2.35;;
43457;SDS011;29046;54.184;18.680;2024-01-07T01:13:43;5.15;;;2.03;;
43457;SDS011;29046;54.184;18.680;2024-01-07T01:16:11;7.05;;;3.10;;
43457;SDS011;29046;54.184;18.680;2024-01-07T01:18:38;10.82;;;2.85;;
43457;SDS011;29046;54.184;18.680;2024-01-07T01:21:06;3.17;;;1.45;;
43457;SDS011;29046;54.184;18.680;2024-01-07T01:23:34;7.20;;;2.15;;
43457;SDS011;29046;54.184;18.680;2024-01-07T01:26:02;9.27;;;2.97;;
43457;SDS011;29046;54.184;18.680;2024-01-07T01:28:29;3.17;;;2.00;;
43457;SDS011;29046;54.184;18.680;2024-01-07T01:30:57;2.92;;;1.73;;
43457;SDS011;29046;54.184;18.680;2024-01-07T01:33:25;4.05;;;2.30;;
43457;SDS011;29046;54.184;18.680;2024-01-07T01:35:53;5.25;;;1.85;;
43457;SDS011;29046;54.184;18.680;2024-01-07T01:38:20;6.35;;;2.45;;
43457;SDS011;29046;54.184;18.680;2024-01-07T01:40:52;7.15;;;2.97;;
43457;SDS011;29046;54.184;18.680;2024-01-07T01:43:23;4.20;;;1.95;;
43457;SDS011;29046;54.184;18.680;2024-01-07T01:45:54;5.38;;;2.25;;
43457;SDS011;29046;54.184;18.680;2024-01-07T01:48:22;3.85;;;1.83;;
43457;SDS011;29046;54.184;18.680;2024-01-07T01:50:50;4.72;;;1.83;;
43457;SDS011;29046;54.184;18.680;2024-01-07T01:53:18;3.53;;;1.80;;
43457;SDS011;29046;54.184;18.680;2024-01-07T01:55:46;2.92;;;1.60;;
43457;SDS011;29046;54.184;18.680;2024-01-07T01:58:14;2.33;;;1.40;;
43457;SDS011;29046;54.184;18.680;2024-01-07T02:00:42;7.43;;;1.98;;
43457;SDS011;29046;54.184;18.680;2024-01-07T02:03:10;4.22;;;1.77;;
43457;SDS011;29046;54.184;18.680;2024-01-07T02:05:38;8.52;;;2.40;;
43457;SDS011;29046;54.184;18.680;2024-01-07T02:08:06;3.75;;;2.10;;
43457;SDS011;29046;54.184;18.680;2024-01-07T02:10:33;6.50;;;1.95;;
43457;SDS011;29046;54.184;18.680;2024-01-07T02:13:06;5.75;;;2.20;;
43457;SDS011;29046;54.184;18.680;2024-01-07T02:15:34;7.10;;;2.42;;
43457;SDS011;29046;54.184;18.680;2024-01-07T02:18:02;4.05;;;2.17;;
43457;SDS011;29046;54.184;18.680;2024-01-07T02:20:29;3.28;;;1.77;;
43457;SDS011;29046;54.184;18.680;2024-01-07T02:22:57;3.58;;;2.30;;
43457;SDS011;29046;54.184;18.680;2024-01-07T02:25:25;5.18;;;1.83;;
43457;SDS011;29046;54.184;18.680;2024-01-07T02:27:53;5.47;;;2.45;;
43457;SDS011;29046;54.184;18.680;2024-01-07T02:30:20;3.80;;;1.88;;
43457;SDS011;29046;54.184;18.680;2024-01-07T02:32:50;7.72;;;3.47;;
43457;SDS011;29046;54.184;18.680;2024-01-07T02:35:17;11.52;;;2.15;;
43457;SDS011;29046;54.184;18.680;2024-01-07T02:37:45;7.63;;;3.05;;
43457;SDS011;29046;54.184;18.680;2024-01-07T02:40:12;4.38;;;1.83;;
43457;SDS011;29046;54.184;18.680;2024-01-07T02:42:40;6.03;;;2.67;;
43457;SDS011;29046;54.184;18.680;2024-01-07T02:45:08;4.78;;;2.15;;
43457;SDS011;29046;54.184;18.680;2024-01-07T02:47:36;8.23;;;3.17;;
43457;SDS011;29046;54.184;18.680;2024-01-07T02:50:03;5.65;;;2.78;;
43457;SDS011;29046;54.184;18.680;2024-01-07T02:52:31;5.25;;;2.40;;
43457;SDS011;29046;54.184;18.680;2024-01-07T02:54:59;3.10;;;1.40;;
43457;SDS011;29046;54.184;18.680;2024-01-07T02:57:28;4.10;;;2.00;;
43457;SDS011;29046;54.184;18.680;2024-01-07T02:59:56;2.75;;;1.25;;
43457;SDS011;29046;54.184;18.680;2024-01-07T03:02:23;5.07;;;1.90;;
43457;SDS011;29046;54.184;18.680;2024-01-07T03:04:51;3.22;;;1.95;;
43457;SDS011;29046;54.184;18.680;2024-01-07T03:07:19;4.90;;;2.05;;
43457;SDS011;29046;54.184;18.680;2024-01-07T03:09:47;5.10;;;2.38;;
43457;SDS011;29046;54.184;18.680;2024-01-07T03:12:15;4.10;;;2.35;;
43457;SDS011;29046;54.184;18.680;2024-01-07T03:14:43;4.57;;;1.95;;
43457;SDS011;29046;54.184;18.680;2024-01-07T03:17:11;4.88;;;1.30;;
43457;SDS011;29046;54.184;18.680;2024-01-07T03:19:39;6.45;;;2.17;;
43457;SDS011;29046;54.184;18.680;2024-01-07T03:22:07;7.68;;;2.83;;
43457;SDS011;29046;54.184;18.680;2024-01-07T03:24:34;4.18;;;1.48;;
43457;SDS011;29046;54.184;18.680;2024-01-07T03:27:02;4.65;;;1.83;;
43457;SDS011;29046;54.184;18.680;2024-01-07T03:29:30;4.78;;;1.98;;
43457;SDS011;29046;54.184;18.680;2024-01-07T03:31:58;8.18;;;3.33;;
43457;SDS011;29046;54.184;18.680;2024-01-07T03:34:25;4.05;;;2.08;;
43457;SDS011;29046;54.184;18.680;2024-01-07T03:36:53;4.90;;;2.10;;
43457;SDS011;29046;54.184;18.680;2024-01-07T03:39:21;4.82;;;2.80;;
43457;SDS011;29046;54.184;18.680;2024-01-07T03:41:48;4.38;;;2.08;;
43457;SDS011;29046;54.184;18.680;2024-01-07T03:44:16;3.30;;;1.23;;
43457;SDS011;29046;54.184;18.680;2024-01-07T03:46:44;5.47;;;1.67;;
43457;SDS011;29046;54.184;18.680;2024-01-07T03:49:11;6.72;;;2.33;;
43457;SDS011;29046;54.184;18.680;2024-01-07T03:51:39;6.95;;;1.88;;
43457;SDS011;29046;54.184;18.680;2024-01-07T03:54:07;5.43;;;2.70;;
43457;SDS011;29046;54.184;18.680;2024-01-07T03:56:34;4.07;;;2.47;;
43457;SDS011;29046;54.184;18.680;2024-01-07T03:59:02;5.13;;;1.77;;
43457;SDS011;29046;54.184;18.680;2024-01-07T04:01:30;4.97;;;2.05;;
43457;SDS011;29046;54.184;18.680;2024-01-07T04:03:57;5.25;;;2.28;;
43457;SDS011;29046;54.184;18.680;2024-01-07T04:06:25;4.72;;;2.75;;
43457;SDS011;29046;54.184;18.680;2024-01-07T04:08:53;5.97;;;2.63;;
43457;SDS011;29046;54.184;18.680;2024-01-07T04:11:20;6.72;;;2.80;;
43457;SDS011;29046;54.184;18.680;2024-01-07T04:13:48;4.20;;;2.08;;
43457;SDS011;29046;54.184;18.680;2024-01-07T04:16:16;7.32;;;2.53;;
43457;SDS011;29046;54.184;18.680;2024-01-07T04:18:45;4.57;;;2.10;;
43457;SDS011;29046;54.184;18.680;2024-01-07T04:21:18;5.43;;;2.55;;
43457;SDS011;29046;54.184;18.680;2024-01-07T04:23:46;6.15;;;2.03;;
43457;SDS011;29046;54.184;18.680;2024-01-07T04:26:13;4.25;;;2.33;;
43457;SDS011;29046;54.184;18.680;2024-01-07T04:28:41;7.93;;;2.35;;
43457;SDS011;29046;54.184;18.680;2024-01-07T04:31:09;6.22;;;3.25;;
43457;SDS011;29046;54.184;18.680;2024-01-07T04:33:38;5.53;;;2.42;;
43457;SDS011;29046;54.184;18.680;2024-01-07T04:36:05;6.05;;;2.38;;
43457;SDS011;29046;54.184;18.680;2024-01-07T04:38:33;3.78;;;1.80;;
43457;SDS011;29046;54.184;18.680;2024-01-07T04:41:01;4.07;;;2.17;;
43457;SDS011;29046;54.184;18.680;2024-01-07T04:43:29;3.47;;;1.80;;
43457;SDS011;29046;54.184;18.680;2024-01-07T04:45:57;7.55;;;2.30;;
43457;SDS011;29046;54.184;18.680;2024-01-07T04:48:24;2.45;;;1.60;;
43457;SDS011;29046;54.184;18.680;2024-01-07T04:50:52;4.30;;;2.20;;
43457;SDS011;29046;54.184;18.680;2024-01-07T04:53:20;2.80;;;1.77;;
43457;SDS011;29046;54.184;18.680;2024-01-07T04:55:47;3.90;;;2.10;;
43457;SDS011;29046;54.184;18.680;2024-01-07T04:58:15;4.72;;;2.33;;
43457;SDS011;29046;54.184;18.680;2024-01-07T05:00:42;4.65;;;2.50;;
43457;SDS011;29046;54.184;18.680;2024-01-07T05:03:10;3.50;;;2.20;;
43457;SDS011;29046;54.184;18.680;2024-01-07T05:05:38;2.97;;;1.85;;
43457;SDS011;29046;54.184;18.680;2024-01-07T05:08:06;3.28;;;1.98;;
43457;SDS011;29046;54.184;18.680;2024-01-07T05:10:33;6.68;;;2.42;;
43457;SDS011;29046;54.184;18.680;2024-01-07T05:13:01;5.30;;;2.15;;
43457;SDS011;29046;54.184;18.680;2024-01-07T05:15:31;6.93;;;1.98;;
43457;SDS011;29046;54.184;18.680;2024-01-07T05:18:00;3.03;;;1.70;;
43457;SDS011;29046;54.184;18.680;2024-01-07T05:20:28;5.05;;;1.85;;
43457;SDS011;29046;54.184;18.680;2024-01-07T05:22:56;2.17;;;1.40;;
43457;SDS011;29046;54.184;18.680;2024-01-07T05:25:24;6.28;;;2.65;;
43457;SDS011;29046;54.184;18.680;2024-01-07T05:27:51;5.03;;;2.00;;
43457;SDS011;29046;54.184;18.680;2024-01-07T05:30:19;3.95;;;1.48;;
43457;SDS011;29046;54.184;18.680;2024-01-07T05:32:47;3.42;;;1.73;;
43457;SDS011;29046;54.184;18.680;2024-01-07T05:35:15;3.75;;;2.00;;
43457;SDS011;29046;54.184;18.680;2024-01-07T05:37:42;4.10;;;1.60;;
43457;SDS011;29046;54.184;18.680;2024-01-07T05:40:10;3.72;;;1.65;;
43457;SDS011;29046;54.184;18.680;2024-01-07T05:42:38;1.40;;;0.70;;
43457;SDS011;29046;54.184;18.680;2024-01-07T05:45:06;3.47;;;1.65;;
43457;SDS011;29046;54.184;18.680;2024-01-07T05:47:34;1.65;;;0.80;;
43457;SDS011;29046;54.184;18.680;2024-01-07T05:50:01;2.92;;;1.40;;
43457;SDS011;29046;54.184;18.680;2024-01-07T05:52:29;2.63;;;1.40;;
43457;SDS011;29046;54.184;18.680;2024-01-07T05:54:56;1.73;;;1.40;;
43457;SDS011;29046;54.184;18.680;2024-01-07T05:57:24;2.17;;;0.85;;
43457;SDS011;29046;54.184;18.680;2024-01-07T05:59:52;3.70;;;1.40;;
43457;SDS011;29046;54.184;18.680;2024-01-07T06:02:20;7.57;;;3.15;;
43457;SDS011;29046;54.184;18.680;2024-01-07T06:04:49;4.60;;;2.05;;
43457;SDS011;29046;54.184;18.680;2024-01-07T06:07:17;2.58;;;1.67;;
43457;SDS011;29046;54.184;18.680;2024-01-07T06:09:45;1.08;;;0.75;;
43457;SDS011;29046;54.184;18.680;2024-01-07T06:12:12;5.50;;;2.08;;
43457;SDS011;29046;54.184;18.680;2024-01-07T06:14:40;1.92;;;0.98;;
43457;SDS011;29046;54.184;18.680;2024-01-07T06:17:08;4.97;;;1.77;;
43457;SDS011;29046;54.184;18.680;2024-01-07T06:19:35;2.15;;;1.17;;
43457;SDS011;29046;54.184;18.680;2024-01-07T06:22:03;5.18;;;2.20;;
43457;SDS011;29046;54.184;18.680;2024-01-07T06:24:31;6.70;;;2.95;;
43457;SDS011;29046;54.184;18.680;2024-01-07T06:26:59;5.18;;;2.65;;
43457;SDS011;29046;54.184;18.680;2024-01-07T06:29:26;6.97;;;2.40;;
43457;SDS011;29046;54.184;18.680;2024-01-07T06:31:54;4.50;;;2.30;;
43457;SDS011;29046;54.184;18.680;2024-01-07T06:34:22;7.18;;;2.35;;
43457;SDS011;29046;54.184;18.680;2024-01-07T06:36:50;4.97;;;2.22;;
43457;SDS011;29046;54.184;18.680;2024-01-07T06:39:18;4.35;;;2.10;;
43457;SDS011;29046;54.184;18.680;2024-01-07T06:41:46;1.23;;;0.80;;
43457;SDS011;29046;54.184;18.680;2024-01-07T06:44:13;5.20;;;2.83;;
43457;SDS011;29046;54.184;18.680;2024-01-07T06:46:41;4.03;;;2.13;;
43457;SDS011;29046;54.184;18.680;2024-01-07T06:49:09;6.60;;;2.88;;
43457;SDS011;29046;54.184;18.680;2024-01-07T06:51:37;9.27;;;2.35;;
43457;SDS011;29046;54.184;18.680;2024-01-07T06:54:05;4.22;;;1.98;;
43457;SDS011;29046;54.184;18.680;2024-01-07T06:56:33;5.07;;;1.77;;
43457;SDS011;29046;54.184;18.680;2024-01-07T06:59:00;3.80;;;2.17;;
43457;SDS011;29046;54.184;18.680;2024-01-07T07:01:29;11.07;;;3.28;;
43457;SDS011;29046;54.184;18.680;2024-01-07T07:03:57;6.53;;;2.80;;
43457;SDS011;29046;54.184;18.680;2024-01-07T07:06:25;6.57;;;2.47;;
43457;SDS011;29046;54.184;18.680;2024-01-07T07:08:52;4.45;;;2.05;;
43457;SDS011;29046;54.184;18.680;2024-01-07T07:11:20;4.75;;;2.05;;
43457;SDS011;29046;54.184;18.680;2024-01-07T07:13:47;5.35;;;2.05;;
43457;SDS011;29046;54.184;18.680;2024-01-07T07:16:15;5.72;;;2.78;;
43457;SDS011;29046;54.184;18.680;2024-01-07T07:18:43;2.75;;;1.33;;
43457;SDS011;29046;54.184;18.680;2024-01-07T07:21:10;3.10;;;1.27;;
43457;SDS011;29046;54.184;18.680;2024-01-07T07:23:38;6.15;;;3.30;;
43457;SDS011;29046;54.184;18.680;2024-01-07T07:26:06;7.88;;;2.95;;
43457;SDS011;29046;54.184;18.680;2024-01-07T07:28:34;15.48;;;4.28;;
43457;SDS011;29046;54.184;18.680;2024-01-07T07:31:02;10.07;;;4.15;;
43457;SDS011;29046;54.184;18.680;2024-01-07T07:33:30;8.65;;;3.22;;
43457;SDS011;29046;54.184;18.680;2024-01-07T07:35:58;7.25;;;3.47;;
43457;SDS011;29046;54.184;18.680;2024-01-07T07:38:26;8.15;;;3.33;;
43457;SDS011;29046;54.184;18.680;2024-01-07T07:40:54;6.40;;;3.33;;
43457;SDS011;29046;54.184;18.680;2024-01-07T07:43:21;14.95;;;4.70;;
43457;SDS011;29046;54.184;18.680;2024-01-07T07:45:49;11.05;;;3.72;;
43457;SDS011;29046;54.184;18.680;2024-01-07T07:48:18;9.20;;;4.85;;
43457;SDS011;29046;54.184;18.680;2024-01-07T07:50:46;7.35;;;4.82;;
43457;SDS011;29046;54.184;18.680;2024-01-07T07:53:13;9.00;;;4.47;;
43457;SDS011;29046;54.184;18.680;2024-01-07T07:55:41;8.60;;;3.13;;
43457;SDS011;29046;54.184;18.680;2024-01-07T07:58:08;7.53;;;3.50;;
43457;SDS011;29046;54.184;18.680;2024-01-07T08:00:36;11.80;;;4.22;;
43457;SDS011;29046;54.184;18.680;2024-01-07T08:03:04;7.88;;;4.20;;
43457;SDS011;29046;54.184;18.680;2024-01-07T08:05:32;12.90;;;4.65;;
43457;SDS011;29046;54.184;18.680;2024-01-07T08:08:00;7.18;;;3.05;;
43457;SDS011;29046;54.184;18.680;2024-01-07T08:10:28;7.00;;;3.00;;
43457;SDS011;29046;54.184;18.680;2024-01-07T08:12:58;6.03;;;3.08;;
43457;SDS011;29046;54.184;18.680;2024-01-07T08:15:26;7.22;;;2.97;;
43457;SDS011;29046;54.184;18.680;2024-01-07T08:17:54;9.32;;;4.20;;
43457;SDS011;29046;54.184;18.680;2024-01-07T08:20:22;5.97;;;2.20;;
43457;SDS011;29046;54.184;18.680;2024-01-07T08:22:49;6.57;;;3.35;;
43457;SDS011;29046;54.184;18.680;2024-01-07T08:25:17;12.98;;;4.93;;
43457;SDS011;29046;54.184;18.680;2024-01-07T08:27:45;7.75;;;3.45;;
43457;SDS011;29046;54.184;18.680;2024-01-07T08:30:15;9.52;;;3.90;;
43457;SDS011;29046;54.184;18.680;2024-01-07T08:32:43;10.48;;;4.65;;
43457;SDS011;29046;54.184;18.680;2024-01-07T08:35:11;14.73;;;5.30;;
43457;SDS011;29046;54.184;18.680;2024-01-07T08:37:42;12.40;;;4.60;;
43457;SDS011;29046;54.184;18.680;2024-01-07T08:40:10;10.63;;;4.70;;
43457;SDS011;29046;54.184;18.680;2024-01-07T08:42:38;11.40;;;4.63;;
43457;SDS011;29046;54.184;18.680;2024-01-07T08:45:06;11.27;;;4.60;;
43457;SDS011;29046;54.184;18.680;2024-01-07T08:47:33;6.28;;;3.58;;
43457;SDS011;29046;54.184;18.680;2024-01-07T08:50:08;9.90;;;3.97;;
43457;SDS011;29046;54.184;18.680;2024-01-07T08:52:36;4.03;;;2.28;;
43457;SDS011;29046;54.184;18.680;2024-01-07T08:55:04;8.25;;;4.20;;
43457;SDS011;29046;54.184;18.680;2024-01-07T08:57:33;7.93;;;1.65;;
43457;SDS011;29046;54.184;18.680;2024-01-07T09:00:01;10.75;;;3.83;;
43457;SDS011;29046;54.184;18.680;2024-01-07T09:02:28;6.15;;;3.00;;
43457;SDS011;29046;54.184;18.680;2024-01-07T09:04:56;9.98;;;4.85;;
43457;SDS011;29046;54.184;18.680;2024-01-07T09:07:24;12.05;;;4.05;;
43457;SDS011;29046;54.184;18.680;2024-01-07T09:09:52;8.93;;;5.20;;
43457;SDS011;29046;54.184;18.680;2024-01-07T09:12:22;3.85;;;2.22;;
43457;SDS011;29046;54.184;18.680;2024-01-07T09:14:49;6.18;;;3.55;;
43457;SDS011;29046;54.184;18.680;2024-01-07T09:17:17;15.18;;;3.78;;
43457;SDS011;29046;54.184;18.680;2024-01-07T09:19:45;5.53;;;3.05;;
43457;SDS011;29046;54.184;18.680;2024-01-07T09:22:13;9.35;;;4.03;;
43457;SDS011;29046;54.184;18.680;2024-01-07T09:24:41;3.67;;;2.13;;
43457;SDS011;29046;54.184;18.680;2024-01-07T09:27:09;8.15;;;3.72;;
43457;SDS011;29046;54.184;18.680;2024-01-07T09:29:36;13.70;;;4.28;;
43457;SDS011;29046;54.184;18.680;2024-01-07T09:32:04;8.27;;;4.00;;
43457;SDS011;29046;54.184;18.680;2024-01-07T09:34:32;11.73;;;4.88;;
43457;SDS011;29046;54.184;18.680;2024-01-07T09:36:59;9.57;;;4.28;;
43457;SDS011;29046;54.184;18.680;2024-01-07T09:39:27;12.88;;;5.72;;
43457;SDS011;29046;54.184;18.680;2024-01-07T09:41:55;9.48;;;5.35;;
43457;SDS011;29046;54.184;18.680;2024-01-07T09:44:23;13.00;;;5.47;;
43457;SDS011;29046;54.184;18.680;2024-01-07T09:46:51;10.88;;;5.90;;
43457;SDS011;29046;54.184;18.680;2024-01-07T09:49:19;9.63;;;3.83;;
43457;SDS011;29046;54.184;18.680;2024-01-07T09:51:47;13.05;;;4.25;;
43457;SDS011;29046;54.184;18.680;2024-01-07T09:54:17;13.55;;;6.32;;
43457;SDS011;29046;54.184;18.680;2024-01-07T09:56:54;10.85;;;4.78;;
43457;SDS011;29046;54.184;18.680;2024-01-07T09:59:23;11.50;;;3.67;;
43457;SDS011;29046;54.184;18.680;2024-01-07T10:01:51;5.00;;;1.50;;
43457;SDS011;29046;54.184;18.680;2024-01-07T10:04:25;12.77;;;3.45;;
43457;SDS011;29046;54.184;18.680;2024-01-07T10:06:54;14.15;;;4.75;;
43457;SDS011;29046;54.184;18.680;2024-01-07T10:09:22;8.02;;;2.83;;
43457;SDS011;29046;54.184;18.680;2024-01-07T10:11:51;7.22;;;2.92;;
43457;SDS011;29046;54.184;18.680;2024-01-07T10:14:19;6.07;;;2.78;;
43457;SDS011;29046;54.184;18.680;2024-01-07T10:16:53;12.32;;;3.53;;
43457;SDS011;29046;54.184;18.680;2024-01-07T10:19:21;10.65;;;4.53;;
43457;SDS011;29046;54.184;18.680;2024-01-07T10:21:58;5.35;;;2.15;;
43457;SDS011;29046;54.184;18.680;2024-01-07T10:24:37;7.68;;;2.90;;
43457;SDS011;29046;54.184;18.680;2024-01-07T10:27:05;8.57;;;3.95;;
43457;SDS011;29046;54.184;18.680;2024-01-07T10:29:33;10.48;;;5.38;;
43457;SDS011;29046;54.184;18.680;2024-01-07T10:32:01;7.07;;;4.18;;
43457;SDS011;29046;54.184;18.680;2024-01-07T10:34:31;5.47;;;3.17;;
43457;SDS011;29046;54.184;18.680;2024-01-07T10:37:00;8.73;;;3.75;;
43457;SDS011;29046;54.184;18.680;2024-01-07T10:39:29;14.15;;;5.55;;
43457;SDS011;29046;54.184;18.680;2024-01-07T10:41:57;17.02;;;5.00;;
43457;SDS011;29046;54.184;18.680;2024-01-07T10:44:25;6.05;;;3.20;;
43457;SDS011;29046;54.184;18.680;2024-01-07T10:46:53;13.65;;;3.67;;
43457;SDS011;29046;54.184;18.680;2024-01-07T10:49:23;12.75;;;4.60;;
43457;SDS011;29046;54.184;18.680;2024-01-07T10:52:05;10.02;;;4.40;;
43457;SDS011;29046;54.184;18.680;2024-01-07T10:54:34;10.32;;;3.42;;
43457;SDS011;29046;54.184;18.680;2024-01-07T10:57:09;8.55;;;2.88;;
43457;SDS011;29046;54.184;18.680;2024-01-07T10:59:39;8.65;;;2.25;;
43457;SDS011;29046;54.184;18.680;2024-01-07T11:02:07;10.10;;;3.25;;
43457;SDS011;29046;54.184;18.680;2024-01-07T11:04:39;9.25;;;3.22;;
43457;SDS011;29046;54.184;18.680;2024-01-07T11:07:19;3.47;;;1.90;;
43457;SDS011;29046;54.184;18.680;2024-01-07T11:10:01;2.53;;;1.30;;
43457;SDS011;29046;54.184;18.680;2024-01-07T11:12:32;7.05;;;1.88;;
43457;SDS011;29046;54.184;18.680;2024-01-07T11:14:59;6.57;;;2.75;;
43457;SDS011;29046;54.184;18.680;2024-01-07T11:18:01;6.07;;;3.05;;
43457;SDS011;29046;54.184;18.680;2024-01-07T11:20:21;6.68;;;3.50;;
43457;SDS011;29046;54.184;18.680;2024-01-07T11:22:58;4.43;;;2.53;;
43457;SDS011;29046;54.184;18.680;2024-01-07T11:25:41;5.97;;;2.78;;
43457;SDS011;29046;54.184;18.680;2024-01-07T11:28:08;8.27;;;3.35;;
43457;SDS011;29046;54.184;18.680;2024-01-07T11:30:39;11.00;;;3.60;;
43457;SDS011;29046;54.184;18.680;2024-01-07T11:33:08;9.90;;;5.20;;
43457;SDS011;29046;54.184;18.680;2024-01-07T11:35:56;12.80;;;4.47;;
43457;SDS011;29046;54.184;18.680;2024-01-07T11:38:24;21.52;;;6.70;;
43457;SDS011;29046;54.184;18.680;2024-01-07T11:40:52;5.32;;;2.95;;
43457;SDS011;29046;54.184;18.680;2024-01-07T11:43:20;11.18;;;3.53;;
43457;SDS011;29046;54.184;18.680;2024-01-07T11:45:51;18.50;;;6.90;;
43457;SDS011;29046;54.184;18.680;2024-01-07T11:48:19;12.70;;;5.15;;
43457;SDS011;29046;54.184;18.680;2024-01-07T11:50:47;17.90;;;5.18;;
43457;SDS011;29046;54.184;18.680;2024-01-07T11:53:16;20.23;;;7.47;;
43457;SDS011;29046;54.184;18.680;2024-01-07T11:55:44;6.03;;;3.50;;
43457;SDS011;29046;54.184;18.680;2024-01-07T11:58:12;20.17;;;5.85;;
43457;SDS011;29046;54.184;18.680;2024-01-07T12:00:40;27.02;;;5.20;;
43457;SDS011;29046;54.184;18.680;2024-01-07T12:03:08;20.67;;;5.30;;
43457;SDS011;29046;54.184;18.680;2024-01-07T12:05:36;26.25;;;7.05;;
43457;SDS011;29046;54.184;18.680;2024-01-07T12:08:06;26.98;;;8.80;;
43457;SDS011;29046;54.184;18.680;2024-01-07T12:10:34;16.00;;;6.13;;
43457;SDS011;29046;54.184;18.680;2024-01-07T12:13:02;28.95;;;8.38;;
43457;SDS011;29046;54.184;18.680;2024-01-07T12:15:30;22.70;;;6.70;;
43457;SDS011;29046;54.184;18.680;2024-01-07T12:17:59;16.40;;;5.55;;
43457;SDS011;29046;54.184;18.680;2024-01-07T12:20:29;13.43;;;5.32;;
43457;SDS011;29046;54.184;18.680;2024-01-07T12:23:04;14.98;;;5.00;;
43457;SDS011;29046;54.184;18.680;2024-01-07T12:25:32;7.15;;;3.22;;
43457;SDS011;29046;54.184;18.680;2024-01-07T12:28:00;11.30;;;3.70;;
43457;SDS011;29046;54.184;18.680;2024-01-07T12:30:28;18.75;;;5.07;;
43457;SDS011;29046;54.184;18.680;2024-01-07T12:32:57;10.73;;;3.78;;
43457;SDS011;29046;54.184;18.680;2024-01-07T12:35:26;12.98;;;4.05;;
43457;SDS011;29046;54.184;18.680;2024-01-07T12:37:53;10.52;;;4.07;;
43457;SDS011;29046;54.184;18.680;2024-01-07T12:40:22;12.50;;;4.70;;
43457;SDS011;29046;54.184;18.680;2024-01-07T12:42:51;9.38;;;4.20;;
43457;SDS011;29046;54.184;18.680;2024-01-07T12:45:19;6.93;;;3.67;;
43457;SDS011;29046;54.184;18.680;2024-01-07T12:47:46;12.95;;;5.35;;
43457;SDS011;29046;54.184;18.680;2024-01-07T12:50:14;15.98;;;4.18;;
43457;SDS011;29046;54.184;18.680;2024-01-07T12:52:42;21.20;;;6.65;;
43457;SDS011;29046;54.184;18.680;2024-01-07T12:55:10;17.15;;;5.13;;
43457;SDS011;29046;54.184;18.680;2024-01-07T12:57:38;27.65;;;6.55;;
43457;SDS011;29046;54.184;18.680;2024-01-07T13:00:06;24.35;;;11.55;;
43457;SDS011;29046;54.184;18.680;2024-01-07T13:02:34;18.02;;;7.25;;
43457;SDS011;29046;54.184;18.680;2024-01-07T13:05:02;18.98;;;6.50;;
43457;SDS011;29046;54.184;18.680;2024-01-07T13:07:30;10.88;;;4.00;;
43457;SDS011;29046;54.184;18.680;2024-01-07T13:09:58;16.25;;;5.35;;
43457;SDS011;29046;54.184;18.680;2024-01-07T13:12:26;12.18;;;5.45;;
43457;SDS011;29046;54.184;18.680;2024-01-07T13:15:09;8.57;;;3.42;;
43457;SDS011;29046;54.184;18.680;2024-01-07T13:17:37;8.93;;;4.53;;
43457;SDS011;29046;54.184;18.680;2024-01-07T13:20:05;8.48;;;4.68;;
43457;SDS011;29046;54.184;18.680;2024-01-07T13:22:33;7.85;;;3.17;;
43457;SDS011;29046;54.184;18.680;2024-01-07T13:25:01;7.45;;;4.60;;
43457;SDS011;29046;54.184;18.680;2024-01-07T13:27:29;5.90;;;2.90;;
43457;SDS011;29046;54.184;18.680;2024-01-07T13:29:59;12.55;;;5.65;;
43457;SDS011;29046;54.184;18.680;2024-01-07T13:32:27;14.45;;;4.32;;
43457;SDS011;29046;54.184;18.680;2024-01-07T13:34:55;8.38;;;4.13;;
43457;SDS011;29046;54.184;18.680;2024-01-07T13:37:23;8.40;;;3.65;;
43457;SDS011;29046;54.184;18.680;2024-01-07T13:39:50;11.50;;;4.38;;
43457;SDS011;29046;54.184;18.680;2024-01-07T13:42:18;25.17;;;6.25;;
43457;SDS011;29046;54.184;18.680;2024-01-07T13:44:46;15.05;;;5.60;;
43457;SDS011;29046;54.184;18.680;2024-01-07T13:47:13;6.32;;;2.65;;
43457;SDS011;29046;54.184;18.680;2024-01-07T13:49:41;15.40;;;5.82;;
43457;SDS011;29046;54.184;18.680;2024-01-07T13:52:09;11.45;;;3.58;;
43457;SDS011;29046;54.184;18.680;2024-01-07T13:54:40;10.13;;;3.90;;
43457;SDS011;29046;54.184;18.680;2024-01-07T13:57:08;14.95;;;4.43;;
43457;SDS011;29046;54.184;18.680;2024-01-07T13:59:36;6.40;;;3.47;;
43457;SDS011;29046;54.184;18.680;2024-01-07T14:02:03;17.05;;;6.70;;
43457;SDS011;29046;54.184;18.680;2024-01-07T14:04:32;10.15;;;4.30;;
43457;SDS011;29046;54.184;18.680;2024-01-07T14:06:59;8.52;;;4.00;;
43457;SDS011;29046;54.184;18.680;2024-01-07T14:09:27;8.05;;;2.80;;
43457;SDS011;29046;54.184;18.680;2024-01-07T14:11:58;26.00;;;7.50;;
43457;SDS011;29046;54.184;18.680;2024-01-07T14:14:26;28.33;;;8.25;;
43457;SDS011;29046;54.184;18.680;2024-01-07T14:16:54;12.75;;;5.28;;
43457;SDS011;29046;54.184;18.680;2024-01-07T14:19:22;14.10;;;3.72;;
43457;SDS011;29046;54.184;18.680;2024-01-07T14:21:49;13.13;;;3.90;;
43457;SDS011;29046;54.184;18.680;2024-01-07T14:24:19;6.30;;;2.90;;
43457;SDS011;29046;54.184;18.680;2024-01-07T14:26:46;11.98;;;2.85;;
43457;SDS011;29046;54.184;18.680;2024-01-07T14:29:14;11.02;;;3.67;;
43457;SDS011;29046;54.184;18.680;2024-01-07T14:31:44;5.40;;;2.97;;
43457;SDS011;29046;54.184;18.680;2024-01-07T14:34:13;2.08;;;1.10;;
43457;SDS011;29046;54.184;18.680;2024-01-07T14:36:41;7.55;;;3.65;;
43457;SDS011;29046;54.184;18.680;2024-01-07T14:39:12;10.40;;;3.88;;